createdAt,value
2023-01-11T00:00:41.688Z,68.69
2023-01-11T00:03:21.106Z,68.47
2023-01-11T00:05:57.774Z,68.07
2023-01-11T00:08:30.531Z,67.85
2023-01-11T00:11:03.845Z,67.72
2023-01-11T00:13:38.590Z,67.67
2023-01-11T00:16:13.963Z,67.66
2023-01-11T00:18:51.830Z,67.48
2023-01-11T00:21:24.677Z,67.69
2023-01-11T00:23:56.936Z,67.56
2023-01-11T00:26:30.188Z,67.65
2023-01-11T00:29:04.943Z,67.54
2023-01-11T00:31:38.459Z,67.52
2023-01-11T00:34:11.436Z,67.61
2023-01-11T00:36:44.588Z,67.45
2023-01-11T00:39:17.515Z,67.32
2023-01-11T00:42:08.604Z,67.35
2023-01-11T00:44:59.998Z,67.21
2023-01-11T00:47:52.438Z,67.12
2023-01-11T00:50:32.716Z,67.06
2023-01-11T00:53:05.984Z,67.00
2023-01-11T00:55:39.232Z,67.08
2023-01-11T00:58:11.489Z,67.15
2023-01-11T01:00:45.685Z,67.38
2023-01-11T01:03:17.649Z,67.40
2023-01-11T01:05:50.296Z,67.38
2023-01-11T01:08:21.007Z,67.43
2023-01-11T01:10:52.309Z,67.56
2023-01-11T01:13:39.107Z,67.36
2023-01-11T01:16:07.914Z,67.36
2023-01-11T01:18:37.091Z,67.34
2023-01-11T01:21:05.557Z,67.40
2023-01-11T01:23:33.946Z,67.27
2023-01-11T01:26:06.613Z,67.41
2023-01-11T01:28:35.921Z,67.63
2023-01-11T01:31:04.733Z,67.69
2023-01-11T01:33:32.979Z,67.41
2023-01-11T01:36:02.294Z,67.40
2023-01-11T01:38:31.185Z,67.46
2023-01-11T01:40:59.402Z,67.39
2023-01-11T01:43:49.946Z,67.41
2023-01-11T01:46:21.647Z,67.31
2023-01-11T01:49:09.860Z,67.26
2023-01-11T01:51:52.665Z,67.28
2023-01-11T01:54:27.496Z,67.06
2023-01-11T01:57:11.553Z,66.99
2023-01-11T01:59:41.733Z,67.03
2023-01-11T02:02:12.112Z,67.03
2023-01-11T02:04:43.178Z,66.76
2023-01-11T02:07:21.037Z,66.76
2023-01-11T02:10:18.297Z,66.83
2023-01-11T02:13:14.731Z,67.02
2023-01-11T02:15:43.263Z,67.30
2023-01-11T02:18:13.638Z,67.38
2023-01-11T02:21:16.519Z,67.16
2023-01-11T02:24:03.135Z,67.11
2023-01-11T02:26:54.039Z,67.02
2023-01-11T02:29:28.561Z,66.86
2023-01-11T02:32:16.197Z,67.03
2023-01-11T02:35:12.718Z,66.95
2023-01-11T02:38:26.255Z,66.97
2023-01-11T02:41:06.625Z,66.98
2023-01-11T02:44:06.147Z,66.80
2023-01-11T02:46:47.816Z,66.71
2023-01-11T02:49:34.237Z,66.79
2023-01-11T02:52:19.414Z,66.94
2023-01-11T02:54:56.406Z,67.11
2023-01-11T02:57:27.660Z,67.06
2023-01-11T02:59:58.356Z,67.09
2023-01-11T03:02:27.850Z,67.02
2023-01-11T03:04:56.160Z,67.12
2023-01-11T03:07:55.166Z,67.16
2023-01-11T03:11:01.306Z,67.21
2023-01-11T03:13:54.370Z,67.21
2023-01-11T03:16:43.634Z,67.22
2023-01-11T03:19:33.927Z,67.21
2023-01-11T03:22:08.968Z,67.28
2023-01-11T03:24:51.286Z,67.41
2023-01-11T03:27:27.366Z,67.66
2023-01-11T03:30:08.105Z,68.03
2023-01-11T03:32:47.949Z,68.31
2023-01-11T03:35:42.632Z,68.59
2023-01-11T03:38:20.749Z,68.66
2023-01-11T03:40:55.481Z,68.77
2023-01-11T03:43:26.090Z,69.14
2023-01-11T03:46:07.486Z,69.24
2023-01-11T03:48:52.651Z,69.45
2023-01-11T03:51:31.996Z,69.57
2023-01-11T03:54:04.975Z,69.71
2023-01-11T03:56:44.919Z,69.89
2023-01-11T03:59:16.588Z,70.03
2023-01-11T04:01:44.966Z,70.27
2023-01-11T04:04:13.246Z,70.37
2023-01-11T04:06:41.533Z,70.50
2023-01-11T04:09:09.895Z,70.61
2023-01-11T04:11:38.168Z,70.64
2023-01-11T04:14:06.262Z,70.72
2023-01-11T04:16:34.999Z,70.84
2023-01-11T04:19:03.281Z,70.92
2023-01-11T04:21:31.482Z,71.07
2023-01-11T04:23:59.959Z,71.22
2023-01-11T04:26:28.265Z,71.35
2023-01-11T04:28:56.516Z,71.59
2023-01-11T04:31:24.939Z,71.73
2023-01-11T04:33:53.880Z,71.78
2023-01-11T04:36:22.258Z,71.88
2023-01-11T04:38:50.437Z,71.97
2023-01-11T04:41:37.448Z,72.09
2023-01-11T04:44:05.747Z,72.31
2023-01-11T04:46:34.022Z,72.40
2023-01-11T04:49:02.901Z,72.45
2023-01-11T04:51:31.383Z,72.54
2023-01-11T04:53:59.648Z,72.62
2023-01-11T04:56:29.363Z,72.66
2023-01-11T04:58:57.757Z,72.87
2023-01-11T05:01:26.283Z,72.91
2023-01-11T05:03:55.435Z,73.07
2023-01-11T05:06:23.958Z,73.12
2023-01-11T05:08:52.380Z,73.07
2023-01-11T05:11:20.659Z,72.96
2023-01-11T05:13:49.647Z,72.96
2023-01-11T05:16:20.948Z,72.98
2023-01-11T05:18:53.284Z,72.97
2023-01-11T05:21:24.335Z,72.82
2023-01-11T05:23:54.721Z,72.84
2023-01-11T05:26:28.163Z,72.91
2023-01-11T05:28:59.194Z,72.92
2023-01-11T05:31:28.493Z,72.90
2023-01-11T05:33:59.965Z,72.87
2023-01-11T05:36:29.652Z,72.81
2023-01-11T05:38:58.708Z,72.77
2023-01-11T05:41:28.646Z,72.76
2023-01-11T05:44:16.047Z,72.60
2023-01-11T05:46:45.378Z,72.59
2023-01-11T05:49:16.145Z,72.63
2023-01-11T05:51:45.551Z,72.46
2023-01-11T05:54:15.957Z,72.47
2023-01-11T05:56:44.357Z,72.47
2023-01-11T05:59:13.566Z,72.46
2023-01-11T06:01:42.312Z,72.45
2023-01-11T06:04:11.110Z,72.53
2023-01-11T06:06:39.504Z,72.43
2023-01-11T06:09:07.877Z,72.48
2023-01-11T06:11:36.148Z,72.44
2023-01-11T06:14:04.589Z,72.41
2023-01-11T06:16:33.861Z,72.48
2023-01-11T06:19:02.389Z,72.73
2023-01-11T06:21:31.412Z,72.72
2023-01-11T06:24:00.179Z,72.76
2023-01-11T06:26:28.543Z,72.70
2023-01-11T06:28:56.806Z,72.71
2023-01-11T06:31:25.061Z,72.78
2023-01-11T06:33:53.264Z,72.66
2023-01-11T06:36:21.534Z,72.48
2023-01-11T06:38:49.823Z,72.50
2023-01-11T06:41:18.247Z,72.39
2023-01-11T06:43:47.193Z,72.46
2023-01-11T06:46:17.632Z,72.38
2023-01-11T06:48:47.001Z,72.31
2023-01-11T06:51:17.929Z,72.29
2023-01-11T06:53:46.755Z,72.16
2023-01-11T06:56:19.128Z,72.14
2023-01-11T06:58:48.296Z,72.13
2023-01-11T07:01:18.834Z,72.04
2023-01-11T07:03:47.657Z,71.95
2023-01-11T07:06:16.550Z,71.89
2023-01-11T07:08:45.843Z,71.83
2023-01-11T07:11:14.896Z,71.86
2023-01-11T07:13:43.399Z,71.75
2023-01-11T07:16:11.674Z,71.71
2023-01-11T07:18:39.976Z,71.50
2023-01-11T07:21:08.340Z,71.53
2023-01-11T07:23:36.810Z,71.45
2023-01-11T07:26:05.546Z,71.20
2023-01-11T07:28:33.975Z,71.12
2023-01-11T07:31:02.641Z,70.95
2023-01-11T07:33:31.251Z,70.80
2023-01-11T07:36:00.915Z,70.62
2023-01-11T07:38:29.646Z,70.47
2023-01-11T07:40:58.238Z,70.18
2023-01-11T07:43:27.227Z,69.92
2023-01-11T07:45:57.762Z,69.76
2023-01-11T07:48:27.248Z,69.62
2023-01-11T07:50:56.523Z,69.39
2023-01-11T07:53:26.666Z,69.15
2023-01-11T07:55:56.202Z,68.82
2023-01-11T07:58:24.773Z,68.74
2023-01-11T08:00:53.264Z,68.77
2023-01-11T08:03:22.236Z,68.51
2023-01-11T08:05:52.779Z,68.42
2023-01-11T08:08:21.534Z,68.14
2023-01-11T08:11:12.966Z,67.89
2023-01-11T08:14:00.377Z,67.60
2023-01-11T08:16:28.885Z,67.33
2023-01-11T08:18:57.377Z,67.25
2023-01-11T08:21:25.757Z,67.26
2023-01-11T08:23:55.563Z,67.21
2023-01-11T08:26:27.925Z,67.09
2023-01-11T08:28:56.603Z,66.95
2023-01-11T08:31:26.490Z,67.04
2023-01-11T08:33:54.960Z,66.99
2023-01-11T08:36:24.746Z,66.98
2023-01-11T08:38:57.312Z,66.85
2023-01-11T08:41:26.004Z,66.92
2023-01-11T08:43:54.993Z,66.80
2023-01-11T08:46:23.811Z,66.46
2023-01-11T08:49:30.954Z,66.61
2023-01-11T08:51:59.746Z,66.50
2023-01-11T08:54:28.452Z,66.05
2023-01-11T08:56:56.930Z,65.84
2023-01-11T08:59:25.588Z,65.58
2023-01-11T09:01:54.144Z,65.09
2023-01-11T09:04:25.541Z,64.73
2023-01-11T09:06:54.533Z,64.70
2023-01-11T09:09:24.065Z,64.53
2023-01-11T09:11:57.166Z,64.32
2023-01-11T09:14:28.104Z,63.98
2023-01-11T09:16:57.463Z,63.87
2023-01-11T09:19:26.381Z,63.93
2023-01-11T09:21:57.927Z,63.70
2023-01-11T09:24:26.853Z,63.36
2023-01-11T09:26:58.533Z,63.35
2023-01-11T09:29:27.792Z,62.82
2023-01-11T09:31:56.503Z,62.73
2023-01-11T09:34:27.635Z,62.92
2023-01-11T09:36:59.946Z,62.99
2023-01-11T09:39:29.394Z,62.89
2023-01-11T09:42:19.272Z,62.43
2023-01-11T09:45:05.482Z,62.18
2023-01-11T09:47:41.658Z,62.18
2023-01-11T09:50:18.881Z,62.17
2023-01-11T09:52:53.284Z,61.90
2023-01-11T09:55:31.917Z,61.48
2023-01-11T09:58:16.496Z,61.32
2023-01-11T10:01:01.429Z,61.35
2023-01-11T10:03:36.742Z,61.21
2023-01-11T10:06:51.566Z,61.29
2023-01-11T10:18:40.120Z,61.31
2023-01-11T10:19:25.130Z,61.21
2023-01-11T10:22:08.850Z,60.90
2023-01-11T10:24:49.099Z,61.11
2023-01-11T10:27:37.687Z,61.36
2023-01-11T10:30:35.244Z,61.10
2023-01-11T10:33:39.269Z,61.05
2023-01-11T10:37:12.151Z,60.94
2023-01-11T10:40:28.242Z,61.21
2023-01-11T10:43:04.724Z,61.20
2023-01-11T10:45:50.663Z,60.92
2023-01-11T10:48:27.560Z,60.92
2023-01-11T10:51:17.986Z,60.73
2023-01-11T10:54:14.795Z,60.89
2023-01-11T10:57:02.487Z,61.06
2023-01-11T10:59:56.528Z,61.09
2023-01-11T11:03:02.259Z,60.71
2023-01-11T11:05:52.576Z,60.18
2023-01-11T11:08:46.968Z,59.65
2023-01-11T11:11:34.081Z,59.65
2023-01-11T11:14:35.425Z,59.40
2023-01-11T11:17:11.088Z,58.99
2023-01-11T11:19:41.164Z,58.96
2023-01-11T11:22:13.584Z,58.69
2023-01-11T11:24:47.480Z,58.80
2023-01-11T11:27:21.816Z,59.04
2023-01-11T11:29:53.609Z,58.84
2023-01-11T11:32:31.379Z,59.08
2023-01-11T11:35:00.159Z,58.99
2023-01-11T11:37:35.352Z,59.04
2023-01-11T11:40:04.774Z,58.87
2023-01-11T11:42:33.290Z,58.36
2023-01-11T11:45:20.297Z,58.22
2023-01-11T11:48:02.404Z,57.99
2023-01-11T11:50:44.357Z,58.07
2023-01-11T11:53:27.860Z,57.63
2023-01-11T11:55:57.323Z,57.85
2023-01-11T11:58:27.353Z,58.05
2023-01-11T12:00:56.560Z,57.98
2023-01-11T12:03:33.301Z,58.28
2023-01-11T12:06:05.373Z,58.32
2023-01-11T12:08:36.195Z,58.44
2023-01-11T12:11:17.395Z,58.84
2023-01-11T12:14:00.007Z,59.25
2023-01-11T12:16:34.151Z,59.33
2023-01-11T12:19:02.540Z,59.28
2023-01-11T12:21:31.192Z,59.34
2023-01-11T12:24:10.827Z,59.61
2023-01-11T12:27:03.220Z,59.71
2023-01-11T12:29:53.780Z,59.94
2023-01-11T12:32:52.960Z,60.18
2023-01-11T12:35:38.352Z,60.45
2023-01-11T12:38:20.450Z,60.64
2023-01-11T12:41:48.062Z,61.09
2023-01-11T12:44:33.194Z,61.52
2023-01-11T12:47:10.262Z,61.92
2023-01-11T12:49:50.520Z,62.10
2023-01-11T12:52:39.310Z,62.21
2023-01-11T12:55:20.870Z,62.58
2023-01-11T12:58:02.043Z,62.93
2023-01-11T13:00:45.671Z,63.22
2023-01-11T13:03:28.819Z,63.25
2023-01-11T13:06:17.161Z,63.49
2023-01-11T13:08:49.822Z,63.50
2023-01-11T13:11:35.529Z,63.64
2023-01-11T13:14:16.171Z,63.85
2023-01-11T13:17:10.572Z,63.97
2023-01-11T13:19:52.231Z,63.91
2023-01-11T13:22:28.241Z,63.99
2023-01-11T13:25:01.715Z,64.11
2023-01-11T13:27:32.261Z,64.20
2023-01-11T13:30:02.397Z,64.46
2023-01-11T13:32:37.773Z,64.72
2023-01-11T13:35:09.782Z,64.81
2023-01-11T13:37:43.552Z,65.07
2023-01-11T13:40:37.251Z,65.25
2023-01-11T13:43:24.491Z,65.43
2023-01-11T13:46:04.048Z,65.59
2023-01-11T13:48:38.024Z,65.88
2023-01-11T13:51:28.625Z,66.02
2023-01-11T13:54:07.655Z,66.27
2023-01-11T13:57:20.668Z,66.58
2023-01-11T14:00:05.563Z,66.77
2023-01-11T14:03:02.097Z,66.88
2023-01-11T14:05:46.688Z,67.01
2023-01-11T14:08:30.363Z,67.19
2023-01-11T14:11:33.612Z,67.15
2023-01-11T14:14:42.521Z,67.33
2023-01-11T14:17:18.223Z,67.29
2023-01-11T14:19:54.184Z,67.44
2023-01-11T14:22:32.789Z,67.43
2023-01-11T14:25:05.238Z,67.43
2023-01-11T14:28:05.667Z,67.50
2023-01-11T14:31:08.239Z,67.55
2023-01-11T14:33:46.574Z,67.55
2023-01-11T14:36:34.850Z,67.62
2023-01-11T14:39:24.077Z,67.83
2023-01-11T14:42:07.961Z,67.93
2023-01-11T14:45:00.875Z,67.93
2023-01-11T14:47:55.784Z,68.07
2023-01-11T14:50:52.310Z,67.99
2023-01-11T14:53:26.527Z,67.98
2023-01-11T14:55:55.507Z,67.86
2023-01-11T14:58:29.721Z,67.73
2023-01-11T15:00:58.301Z,67.74
2023-01-11T15:03:48.889Z,67.61
2023-01-11T15:06:20.605Z,67.79
2023-01-11T15:08:55.736Z,67.71
2023-01-11T15:11:50.866Z,67.88
2023-01-11T15:14:31.196Z,67.80
2023-01-11T15:17:21.536Z,67.97
2023-01-11T15:19:52.371Z,68.04
2023-01-11T15:22:33.983Z,68.08
2023-01-11T15:25:07.055Z,68.27
2023-01-11T15:27:38.346Z,68.42
2023-01-11T15:30:29.393Z,68.42
2023-01-11T15:33:20.562Z,68.42
2023-01-11T15:35:58.074Z,68.47
2023-01-11T15:38:34.270Z,68.43
2023-01-11T15:41:24.178Z,68.49
2023-01-11T15:44:15.349Z,68.39
2023-01-11T15:47:22.598Z,68.59
2023-01-11T15:50:07.026Z,68.65
2023-01-11T15:53:16.613Z,68.71
2023-01-11T15:56:00.359Z,68.72
2023-01-11T15:58:37.953Z,68.88
2023-01-11T16:01:23.856Z,68.94
2023-01-11T16:04:13.439Z,69.04
2023-01-11T16:07:06.458Z,69.12
2023-01-11T16:09:59.068Z,69.06
2023-01-11T16:13:12.425Z,69.08
2023-01-11T16:16:03.009Z,69.10
2023-01-11T16:19:04.945Z,69.03
2023-01-11T16:21:45.114Z,69.08
2023-01-11T16:24:22.293Z,69.00
2023-01-11T16:27:05.508Z,69.08
2023-01-11T16:29:40.304Z,68.94
2023-01-11T16:32:27.917Z,69.08
2023-01-11T16:34:59.001Z,68.90
2023-01-11T16:37:41.020Z,68.90
2023-01-11T16:40:15.856Z,68.81
2023-01-11T16:43:07.105Z,68.79
2023-01-11T16:45:47.333Z,68.72
2023-01-11T16:48:21.491Z,68.78
2023-01-11T16:51:03.352Z,68.72
2023-01-11T16:53:55.001Z,68.79
2023-01-11T16:56:29.333Z,68.62
2023-01-11T16:59:31.927Z,68.76
2023-01-11T17:02:04.927Z,68.83
2023-01-11T17:04:49.750Z,68.79
2023-01-11T17:07:26.882Z,68.90
2023-01-11T17:10:26.595Z,68.97
2023-01-11T17:13:37.029Z,68.93
2023-01-11T17:16:16.448Z,69.02
2023-01-11T17:18:51.002Z,69.11
2023-01-11T17:21:27.187Z,69.19
2023-01-11T17:24:04.769Z,69.10
2023-01-11T17:26:52.912Z,69.13
2023-01-11T17:29:35.328Z,69.12
2023-01-11T17:32:14.956Z,69.25
2023-01-11T17:34:47.321Z,69.31
2023-01-11T17:37:20.019Z,69.40
2023-01-11T17:39:55.002Z,69.40
2023-01-11T17:42:45.037Z,69.37
2023-01-11T17:45:24.712Z,69.30
2023-01-11T17:47:56.954Z,69.24
2023-01-11T17:50:32.940Z,69.21
2023-01-11T17:53:17.834Z,69.21
2023-01-11T17:56:00.775Z,69.17
2023-01-11T17:58:39.944Z,69.18
2023-01-11T18:01:20.226Z,69.26
2023-01-11T18:03:59.144Z,69.32
2023-01-11T18:06:46.228Z,69.44
2023-01-11T18:09:30.078Z,69.53
2023-01-11T18:12:10.515Z,69.54
2023-01-11T18:15:04.722Z,69.57
2023-01-11T18:17:46.104Z,69.49
2023-01-11T18:20:17.370Z,69.59
2023-01-11T18:22:54.950Z,69.60
2023-01-11T18:25:35.733Z,69.68
2023-01-11T18:28:15.721Z,69.75
2023-01-11T18:31:02.574Z,69.77
2023-01-11T18:33:41.851Z,69.76
2023-01-11T18:36:21.951Z,69.79
2023-01-11T18:38:53.103Z,69.69
2023-01-11T18:41:44.798Z,69.64
2023-01-11T18:44:22.344Z,69.68
2023-01-11T18:46:54.145Z,69.49
2023-01-11T18:49:26.473Z,69.50
2023-01-11T18:51:58.640Z,69.37
2023-01-11T18:54:30.026Z,69.38
2023-01-11T18:57:02.066Z,69.30
2023-01-11T18:59:33.616Z,69.36
2023-01-11T19:02:29.410Z,69.18
2023-01-11T19:05:01.416Z,69.10
2023-01-11T19:07:37.858Z,69.02
2023-01-11T19:10:25.345Z,69.11
2023-01-11T19:13:27.279Z,69.30
2023-01-11T19:16:03.883Z,69.34
2023-01-11T19:18:42.129Z,69.61
2023-01-11T19:21:15.507Z,69.87
2023-01-11T19:23:51.622Z,69.96
2023-01-11T19:26:24.537Z,70.29
2023-01-11T19:29:04.441Z,70.70
2023-01-11T19:31:35.358Z,71.01
2023-01-11T19:34:08.660Z,71.28
2023-01-11T19:36:46.881Z,71.51
2023-01-11T19:39:19.329Z,71.89
2023-01-11T19:42:02.837Z,72.17
2023-01-11T19:44:37.143Z,72.44
2023-01-11T19:47:16.546Z,72.77
2023-01-11T19:49:50.940Z,73.01
2023-01-11T19:52:22.693Z,73.22
2023-01-11T19:54:59.572Z,73.39
2023-01-11T19:57:35.607Z,73.59
2023-01-11T20:00:15.157Z,73.73
2023-01-11T20:02:49.344Z,73.92
2023-01-11T20:05:22.723Z,73.95
2023-01-11T20:08:02.425Z,74.15
2023-01-11T20:10:38.401Z,74.30
2023-01-11T20:13:14.600Z,74.48
2023-01-11T20:15:47.687Z,74.51
2023-01-11T20:18:19.862Z,74.57
2023-01-11T20:21:03.228Z,74.70
2023-01-11T20:23:37.744Z,74.80
2023-01-11T20:26:28.918Z,75.04
2023-01-11T20:29:01.373Z,75.16
2023-01-11T20:31:35.039Z,75.23
2023-01-11T20:34:11.894Z,75.34
2023-01-11T20:36:44.203Z,75.55
2023-01-11T20:39:15.424Z,75.62
2023-01-11T20:41:50.664Z,75.73
2023-01-11T20:44:25.372Z,75.83
2023-01-11T20:46:57.890Z,75.97
2023-01-11T20:49:31.177Z,76.11
2023-01-11T20:52:02.019Z,76.21
2023-01-11T20:54:36.270Z,76.22
2023-01-11T20:57:13.324Z,76.32
2023-01-11T20:59:47.440Z,76.35
2023-01-11T21:02:18.521Z,76.47
2023-01-11T21:04:53.310Z,76.58
2023-01-11T21:07:25.309Z,76.67
2023-01-11T21:09:57.103Z,76.63
2023-01-11T21:12:29.229Z,76.71
2023-01-11T21:15:01.347Z,76.77
2023-01-11T21:17:32.498Z,76.83
2023-01-11T21:20:04.094Z,76.93
2023-01-11T21:22:37.938Z,76.97
2023-01-11T21:25:09.654Z,77.03
2023-01-11T21:27:41.552Z,77.07
2023-01-11T21:30:18.471Z,77.09
2023-01-11T21:32:50.559Z,77.13
2023-01-11T21:35:21.676Z,77.23
2023-01-11T21:37:57.041Z,77.25
2023-01-11T21:40:28.437Z,77.24
2023-01-11T21:43:00.435Z,77.31
2023-01-11T21:45:34.623Z,77.40
2023-01-11T21:48:09.238Z,77.45
2023-01-11T21:50:40.461Z,77.37
2023-01-11T21:53:14.739Z,77.28
2023-01-11T21:55:46.450Z,77.33
2023-01-11T21:58:19.125Z,77.21
2023-01-11T22:00:53.732Z,77.26
2023-01-11T22:03:29.796Z,77.09
2023-01-11T22:06:04.695Z,77.23
2023-01-11T22:08:37.268Z,77.18
2023-01-11T22:11:11.414Z,77.19
2023-01-11T22:13:43.359Z,77.27
2023-01-11T22:16:19.697Z,77.29
2023-01-11T22:18:50.871Z,77.36
2023-01-11T22:21:22.796Z,77.40
2023-01-11T22:23:58.161Z,77.49
2023-01-11T22:26:37.121Z,77.56
2023-01-11T22:29:19.803Z,77.51
2023-01-11T22:31:57.371Z,77.51
2023-01-11T22:34:29.703Z,77.58
2023-01-11T22:37:06.904Z,77.56
2023-01-11T22:39:41.997Z,77.62
2023-01-11T22:42:13.423Z,77.65
2023-01-11T22:44:44.798Z,77.65
2023-01-11T22:47:16.158Z,77.55
2023-01-11T22:49:47.553Z,77.58
2023-01-11T22:52:24.230Z,77.53
2023-01-11T22:54:54.945Z,77.57
2023-01-11T22:57:26.731Z,77.47
2023-01-11T23:00:05.431Z,77.23
2023-01-11T23:02:36.784Z,77.29
2023-01-11T23:05:11.487Z,77.17
2023-01-11T23:07:45.252Z,77.12
2023-01-11T23:10:21.891Z,77.17
2023-01-11T23:13:12.085Z,77.07
2023-01-11T23:15:43.401Z,76.87
2023-01-11T23:18:14.842Z,76.84
2023-01-11T23:20:50.970Z,76.80
2023-01-11T23:23:22.489Z,76.81
2023-01-11T23:25:55.883Z,76.79
2023-01-11T23:28:27.535Z,76.67
2023-01-11T23:30:58.354Z,76.75
2023-01-11T23:33:29.608Z,76.62
2023-01-11T23:36:05.679Z,76.55
2023-01-11T23:38:40.007Z,76.48
2023-01-11T23:41:36.193Z,76.42
2023-01-11T23:44:12.115Z,76.40
2023-01-11T23:47:02.272Z,76.29
2023-01-11T23:49:34.500Z,76.23
2023-01-11T23:52:07.645Z,76.37
2023-01-11T23:54:39.507Z,76.48
2023-01-11T23:57:13.231Z,76.35
2023-01-11T23:59:48.068Z,76.15
